Skokomish, Washington
Current Conditions -  °F | °C
As of 8:06 PM on Wednesday 26 Nov 2014 (Local Time) from KSHN Reporting Station
Overcast Overcast  
Wind Chill: 53°   Ceiling: 3100
Heat Index: 53°   Visibility: 10mi
Dew Point: 52°   Wind: 3mph
Humidity: 96%   Direction: 260°W
Pressure: 29.89"   Gusts: NA
Location:  47.1839°N, 123.15°W
Report Text: KSHN 270406Z AUTO 26003KT 10SM SCT026 BKN031 OVC080 12/11 A2989 RMK AO2 T01170111
Loading
Personal Weather Stations






























Interactive Weather Map New forecast layout! Learn more

10-Day Weather Forecast

Advertisements
Track Severe Weather on mobile